Time;durP1;ratioP1;P1;durP2;ratioP2;P2;SDS_P1;SDS_P2;PMS_P1;PMS_P2;Temp;Humidity;BMP_temperature;BMP_pressure;BME280_temperature;BME280_humidity;BME280_pressure;Samples;Min_cycle;Max_cycle;Signal;HPM_P1;HPM_P2
2022/04/24 00:01:35;;;;;;;3.00;2.70;;;;;;;;;;5113893;28;20680;-50
2022/04/24 00:04:03;;;;;;;2.93;2.70;;;;;;;;;;5114200;28;20281;-51
2022/04/24 00:06:31;;;;;;;3.30;3.00;;;;;;;;;;5114176;28;20209;-50
2022/04/24 00:08:57;;;;;;;3.30;3.00;;;;;;;;;;5113960;28;20615;-51
2022/04/24 00:11:23;;;;;;;4.00;3.20;;;;;;;;;;5113909;28;20194;-50
2022/04/24 00:13:49;;;;;;;4.80;2.87;;;;;;;;;;5111969;28;20238;-53
2022/04/24 00:16:15;;;;;;;6.03;2.90;;;;;;;;;;5113766;28;20564;-52
2022/04/24 00:18:42;;;;;;;3.20;2.90;;;;;;;;;;5113784;28;20194;-53
2022/04/24 00:21:09;;;;;;;3.53;3.23;;;;;;;;;;5113541;28;20257;-52
2022/04/24 00:23:35;;;;;;;3.50;3.20;;;;;;;;;;5113778;28;20210;-53
2022/04/24 00:26:01;;;;;;;3.23;3.03;;;;;;;;;;5113836;28;20205;-52
2022/04/24 00:28:27;;;;;;;3.30;3.00;;;;;;;;;;5113617;28;20323;-52
2022/04/24 00:30:53;;;;;;;4.93;3.00;;;;;;;;;;5113466;28;20240;-52
2022/04/24 00:33:19;;;;;;;3.00;2.70;;;;;;;;;;5113280;28;20684;-51
2022/04/24 00:35:45;;;;;;;4.40;2.90;;;;;;;;;;5113432;28;20232;-54
2022/04/24 00:38:12;;;;;;;4.73;2.80;;;;;;;;;;5113478;28;20202;-52
2022/04/24 00:40:38;;;;;;;2.93;2.73;;;;;;;;;;5113253;28;20215;-53
2022/04/24 00:43:04;;;;;;;5.43;3.10;;;;;;;;;;5113433;28;20200;-52
2022/04/24 00:45:30;;;;;;;3.17;2.50;;;;;;;;;;5113370;28;20209;-53
2022/04/24 00:47:57;;;;;;;3.90;3.10;;;;;;;;;;5113238;28;20195;-53
2022/04/24 00:50:23;;;;;;;3.40;3.10;;;;;;;;;;5112974;28;20251;-52
2022/04/24 00:52:49;;;;;;;3.00;2.70;;;;;;;;;;5113244;28;20195;-53
2022/04/24 00:55:17;;;;;;;3.00;2.70;;;;;;;;;;5113274;28;20690;-52
2022/04/24 00:57:44;;;;;;;3.87;2.70;;;;;;;;;;5113188;28;20206;-52
2022/04/24 01:00:10;;;;;;;4.80;2.67;;;;;;;;;;5112907;28;20193;-52
2022/04/24 01:02:38;;;;;;;3.40;2.90;;;;;;;;;;5113077;28;20257;-51
2022/04/24 01:05:05;;;;;;;4.77;3.00;;;;;;;;;;5112944;28;20194;-52
2022/04/24 01:07:31;;;;;;;3.20;2.90;;;;;;;;;;5113242;28;20198;-50
2022/04/24 01:09:58;;;;;;;2.67;2.47;;;;;;;;;;5112283;28;20194;-51
2022/04/24 01:12:25;;;;;;;3.13;2.63;;;;;;;;;;5112504;28;20201;-51
2022/04/24 01:14:51;;;;;;;4.03;3.00;;;;;;;;;;5112708;28;20752;-51
2022/04/24 01:17:18;;;;;;;2.90;2.60;;;;;;;;;;5112765;28;20193;-52
2022/04/24 01:19:47;;;;;;;3.43;2.53;;;;;;;;;;5112812;28;20199;-51
2022/04/24 01:22:16;;;;;;;2.93;2.67;;;;;;;;;;5112478;28;20309;-52
2022/04/24 01:24:42;;;;;;;3.07;2.77;;;;;;;;;;5112709;28;20256;-52
2022/04/24 01:27:08;;;;;;;3.83;2.83;;;;;;;;;;5112386;28;20198;-52
2022/04/24 01:29:34;;;;;;;6.20;2.83;;;;;;;;;;5112420;28;20198;-52
2022/04/24 01:32:00;;;;;;;3.00;2.70;;;;;;;;;;5112678;28;20597;-51
2022/04/24 01:34:26;;;;;;;2.83;2.63;;;;;;;;;;5112390;28;20223;-51
2022/04/24 01:36:52;;;;;;;3.03;2.60;;;;;;;;;;5112505;28;20190;-52
2022/04/24 01:39:19;;;;;;;2.80;2.60;;;;;;;;;;5112421;28;20198;-52
2022/04/24 01:41:45;;;;;;;4.87;2.77;;;;;;;;;;5112504;28;20255;-54
2022/04/24 01:44:11;;;;;;;2.83;2.63;;;;;;;;;;5112292;28;20186;-52
2022/04/24 01:46:38;;;;;;;2.70;2.47;;;;;;;;;;5112601;28;20500;-53
2022/04/24 01:49:04;;;;;;;4.00;2.70;;;;;;;;;;5112008;28;20729;-51
2022/04/24 01:51:30;;;;;;;4.57;2.73;;;;;;;;;;5112327;28;20186;-51
2022/04/24 01:53:56;;;;;;;3.27;2.80;;;;;;;;;;5112327;28;20209;-51
2022/04/24 01:56:23;;;;;;;2.80;2.60;;;;;;;;;;5112157;28;20194;-52
2022/04/24 01:58:49;;;;;;;4.70;3.10;;;;;;;;;;5112370;28;20580;-52
2022/04/24 02:01:15;;;;;;;3.30;3.00;;;;;;;;;;5112171;28;20577;-52
2022/04/24 02:03:41;;;;;;;3.87;2.70;;;;;;;;;;5112148;28;20206;-51
2022/04/24 02:06:07;;;;;;;4.13;2.70;;;;;;;;;;5112214;28;20210;-51
2022/04/24 02:08:37;;;;;;;3.53;3.13;;;;;;;;;;5112226;28;20198;-51
2022/04/24 02:11:03;;;;;;;3.27;2.63;;;;;;;;;;5112319;28;20186;-52
2022/04/24 02:13:30;;;;;;;3.93;3.00;;;;;;;;;;5112061;28;20251;-52
2022/04/24 02:15:56;;;;;;;3.30;3.00;;;;;;;;;;5112192;28;20664;-51
2022/04/24 02:18:22;;;;;;;5.57;2.90;;;;;;;;;;5111965;28;20201;-52
2022/04/24 02:20:48;;;;;;;4.03;2.90;;;;;;;;;;5112095;28;20649;-51
2022/04/24 02:23:14;;;;;;;3.30;2.83;;;;;;;;;;5115477;28;20222;-52
2022/04/24 02:25:40;;;;;;;3.30;2.97;;;;;;;;;;5116101;27;20252;-52
2022/04/24 02:28:06;;;;;;;2.90;2.63;;;;;;;;;;5115855;28;20198;-53
2022/04/24 02:30:35;;;;;;;3.63;2.87;;;;;;;;;;5115948;28;20208;-52
2022/04/24 02:33:01;;;;;;;3.30;2.90;;;;;;;;;;5115964;28;20225;-52
2022/04/24 02:35:28;;;;;;;4.67;3.20;;;;;;;;;;5115821;28;20251;-52
2022/04/24 02:37:54;;;;;;;3.40;2.50;;;;;;;;;;5115907;27;20293;-52
2022/04/24 02:40:21;;;;;;;3.60;2.60;;;;;;;;;;5115717;28;20310;-51
2022/04/24 02:42:48;;;;;;;3.30;3.00;;;;;;;;;;5115459;28;20615;-51
2022/04/24 02:45:14;;;;;;;2.93;2.63;;;;;;;;;;5115720;28;20212;-51
2022/04/24 02:47:41;;;;;;;4.03;2.67;;;;;;;;;;5115571;28;20198;-51
2022/04/24 02:50:07;;;;;;;3.63;3.10;;;;;;;;;;5115565;28;20208;-52
2022/04/24 02:52:33;;;;;;;4.50;3.00;;;;;;;;;;5115444;28;20636;-52
2022/04/24 02:54:59;;;;;;;3.60;2.53;;;;;;;;;;5115547;27;20190;-52
2022/04/24 02:57:26;;;;;;;3.10;2.80;;;;;;;;;;5115226;28;20210;-51
2022/04/24 02:59:52;;;;;;;3.40;3.10;;;;;;;;;;5115381;28;20202;-51
2022/04/24 03:02:18;;;;;;;3.87;2.90;;;;;;;;;;5115065;27;20233;-52
2022/04/24 03:04:46;;;;;;;2.80;2.60;;;;;;;;;;5115433;28;20198;-52
2022/04/24 03:07:12;;;;;;;3.13;2.93;;;;;;;;;;5115154;27;20201;-51
2022/04/24 03:09:39;;;;;;;3.87;2.70;;;;;;;;;;5115243;28;20194;-52
2022/04/24 03:12:06;;;;;;;3.60;2.93;;;;;;;;;;5115253;28;20225;-52
2022/04/24 03:14:32;;;;;;;4.47;3.50;;;;;;;;;;5113816;27;20426;-52
2022/04/24 03:16:58;;;;;;;5.73;3.27;;;;;;;;;;5115069;28;20444;-52
2022/04/24 03:19:24;;;;;;;5.87;2.57;;;;;;;;;;5114840;28;20279;-52
2022/04/24 03:21:51;;;;;;;2.77;2.47;;;;;;;;;;5114981;27;20739;-51
2022/04/24 03:24:17;;;;;;;4.47;3.20;;;;;;;;;;5114908;28;20221;-52
2022/04/24 03:26:43;;;;;;;3.80;2.90;;;;;;;;;;5114580;27;20213;-52
2022/04/24 03:29:09;;;;;;;3.67;3.38;;;;;;;;;;5113431;28;20574;-51
2022/04/24 03:31:35;;;;;;;3.33;3.03;;;;;;;;;;5114495;28;20194;-52
2022/04/24 03:34:02;;;;;;;4.07;3.50;;;;;;;;;;5113465;28;20244;-52
2022/04/24 03:36:28;;;;;;;3.87;3.10;;;;;;;;;;5114485;27;20209;-51
2022/04/24 03:38:55;;;;;;;3.37;3.07;;;;;;;;;;5114439;28;20194;-52
2022/04/24 03:41:21;;;;;;;5.50;3.10;;;;;;;;;;5114231;28;20241;-51
2022/04/24 03:43:47;;;;;;;5.17;3.00;;;;;;;;;;5114440;27;20672;-53
2022/04/24 03:46:13;;;;;;;3.43;3.13;;;;;;;;;;5114351;28;20202;-51
2022/04/24 03:48:39;;;;;;;4.23;3.00;;;;;;;;;;5114205;28;20198;-52
2022/04/24 03:51:07;;;;;;;3.87;3.20;;;;;;;;;;5114272;28;20223;-51
2022/04/24 03:53:33;;;;;;;5.10;3.00;;;;;;;;;;5114077;27;20277;-52
2022/04/24 03:56:00;;;;;;;3.13;2.83;;;;;;;;;;5114224;28;20236;-51
2022/04/24 03:58:26;;;;;;;5.03;3.23;;;;;;;;;;5113911;28;20202;-51
2022/04/24 04:00:52;;;;;;;8.17;3.53;;;;;;;;;;5113791;28;20213;-52
2022/04/24 04:03:18;;;;;;;3.60;3.30;;;;;;;;;;5113817;28;20244;-51
2022/04/24 04:05:44;;;;;;;3.87;3.10;;;;;;;;;;5114071;28;20205;-51
2022/04/24 04:08:10;;;;;;;4.17;3.20;;;;;;;;;;5113865;28;20541;-51
2022/04/24 04:10:36;;;;;;;4.97;2.93;;;;;;;;;;5113800;28;20202;-52
2022/04/24 04:13:06;;;;;;;5.07;2.93;;;;;;;;;;5113845;28;20272;-52
2022/04/24 04:15:32;;;;;;;3.30;3.00;;;;;;;;;;5113629;27;20281;-52
2022/04/24 04:17:58;;;;;;;3.33;3.00;;;;;;;;;;5113874;28;20206;-54
2022/04/24 04:20:25;;;;;;;3.80;2.90;;;;;;;;;;5113672;28;20289;-52
2022/04/24 04:22:51;;;;;;;4.50;3.10;;;;;;;;;;5113571;28;20891;-51
2022/04/24 04:25:18;;;;;;;4.30;3.53;;;;;;;;;;5113735;28;20214;-52
2022/04/24 04:27:44;;;;;;;3.43;3.13;;;;;;;;;;5113811;28;20268;-52
2022/04/24 04:30:12;;;;;;;3.30;2.90;;;;;;;;;;5113379;28;20729;-52
2022/04/24 04:32:38;;;;;;;3.13;2.73;;;;;;;;;;5113414;28;20201;-52
2022/04/24 04:35:05;;;;;;;4.73;3.00;;;;;;;;;;5113233;28;20202;-52
2022/04/24 04:37:32;;;;;;;4.10;2.87;;;;;;;;;;5113295;28;20233;-51
2022/04/24 04:39:58;;;;;;;3.10;2.80;;;;;;;;;;5113401;28;20218;-51
2022/04/24 04:42:24;;;;;;;3.77;3.00;;;;;;;;;;5113142;28;20274;-51
2022/04/24 04:44:50;;;;;;;3.50;3.20;;;;;;;;;;5112926;28;20202;-52
2022/04/24 04:47:17;;;;;;;4.87;2.90;;;;;;;;;;5113132;28;20220;-51
2022/04/24 04:49:43;;;;;;;3.33;2.80;;;;;;;;;;5113246;28;20213;-52
2022/04/24 04:52:09;;;;;;;3.83;2.73;;;;;;;;;;5113286;28;20202;-51
2022/04/24 04:54:35;;;;;;;3.67;2.93;;;;;;;;;;5113108;28;20229;-52
2022/04/24 04:57:01;;;;;;;3.80;2.90;;;;;;;;;;5113013;28;20214;-54
2022/04/24 04:59:27;;;;;;;3.87;3.30;;;;;;;;;;5112864;28;20198;-51
2022/04/24 05:01:53;;;;;;;5.55;3.28;;;;;;;;;;5111665;28;20488;-51
2022/04/24 05:04:21;;;;;;;3.40;2.73;;;;;;;;;;5111358;28;20657;-52
2022/04/24 05:06:47;;;;;;;3.67;2.60;;;;;;;;;;5112852;28;20293;-52
2022/04/24 05:09:13;;;;;;;2.90;2.70;;;;;;;;;;5112685;28;20309;-51
2022/04/24 05:11:39;;;;;;;4.57;2.90;;;;;;;;;;5112690;28;20193;-52
2022/04/24 05:14:05;;;;;;;3.20;2.90;;;;;;;;;;5112560;28;20232;-50
2022/04/24 05:16:31;;;;;;;3.15;2.85;;;;;;;;;;5111350;28;20392;-51
2022/04/24 05:18:58;;;;;;;5.40;2.90;;;;;;;;;;5112634;28;20201;-51
2022/04/24 05:21:26;;;;;;;2.90;2.60;;;;;;;;;;5112384;28;20232;-52
2022/04/24 05:23:52;;;;;;;4.47;2.70;;;;;;;;;;5112451;28;20301;-52
2022/04/24 05:26:18;;;;;;;2.83;2.53;;;;;;;;;;5112408;28;20569;-51
2022/04/24 05:28:45;;;;;;;3.03;2.70;;;;;;;;;;5112604;28;20262;-52
2022/04/24 05:31:11;;;;;;;3.83;2.80;;;;;;;;;;5112451;28;20194;-57
2022/04/24 05:33:37;;;;;;;4.50;2.53;;;;;;;;;;5112495;28;20323;-51
2022/04/24 05:36:04;;;;;;;4.70;2.30;;;;;;;;;;5112419;28;20712;-51
2022/04/24 05:38:32;;;;;;;2.97;2.50;;;;;;;;;;5112307;28;20655;-52
2022/04/24 05:40:58;;;;;;;2.60;2.30;;;;;;;;;;5112298;28;20719;-51
2022/04/24 05:43:24;;;;;;;3.67;2.77;;;;;;;;;;5112143;28;20301;-50
2022/04/24 05:45:50;;;;;;;3.27;2.50;;;;;;;;;;5112363;28;20202;-51
2022/04/24 05:48:18;;;;;;;3.70;2.50;;;;;;;;;;5112201;28;20221;-51
2022/04/24 05:50:44;;;;;;;3.13;2.13;;;;;;;;;;5112374;28;20217;-50
2022/04/24 05:53:10;;;;;;;2.97;2.43;;;;;;;;;;5111742;28;20223;-52
2022/04/24 05:55:37;;;;;;;3.20;2.27;;;;;;;;;;5111662;28;20638;-51
2022/04/24 05:58:04;;;;;;;3.23;2.10;;;;;;;;;;5115141;28;20205;-52
2022/04/24 06:00:30;;;;;;;2.47;2.20;;;;;;;;;;5115766;28;20288;-52
2022/04/24 06:02:56;;;;;;;3.77;2.50;;;;;;;;;;5116255;28;20218;-52
2022/04/24 06:05:22;;;;;;;4.10;2.67;;;;;;;;;;5114971;28;20591;-53
2022/04/24 06:07:48;;;;;;;3.67;2.27;;;;;;;;;;5116042;28;20653;-52
2022/04/24 06:10:14;;;;;;;2.53;2.13;;;;;;;;;;5116244;28;20191;-52
2022/04/24 06:12:45;;;;;;;2.87;2.20;;;;;;;;;;5116278;28;20551;-52
2022/04/24 06:15:15;;;;;;;2.40;2.17;;;;;;;;;;5115852;28;20248;-52
2022/04/24 06:17:41;;;;;;;3.83;2.30;;;;;;;;;;5115866;28;20259;-52
2022/04/24 06:20:08;;;;;;;3.57;2.20;;;;;;;;;;5116020;28;20199;-52
2022/04/24 06:22:41;;;;;;;2.80;2.20;;;;;;;;;;5115824;28;20407;-51
2022/04/24 06:25:07;;;;;;;3.47;2.47;;;;;;;;;;5115862;28;20214;-52
2022/04/24 06:27:33;;;;;;;3.23;2.40;;;;;;;;;;5116047;28;20233;-53
2022/04/24 06:30:01;;;;;;;2.63;2.30;;;;;;;;;;5115763;28;20225;-51
2022/04/24 06:32:28;;;;;;;4.97;2.57;;;;;;;;;;5115452;28;20209;-51
2022/04/24 06:34:54;;;;;;;3.40;2.40;;;;;;;;;;5115471;28;20194;-52
2022/04/24 06:37:20;;;;;;;3.17;2.20;;;;;;;;;;5114964;28;20220;-52
2022/04/24 06:39:46;;;;;;;5.00;2.50;;;;;;;;;;5115334;28;20205;-51
2022/04/24 06:42:12;;;;;;;2.90;2.20;;;;;;;;;;5114797;28;20329;-53
2022/04/24 06:44:38;;;;;;;5.43;2.20;;;;;;;;;;5115499;28;20186;-52
2022/04/24 06:47:06;;;;;;;3.93;2.43;;;;;;;;;;5114903;28;20190;-52
2022/04/24 06:49:32;;;;;;;2.87;2.20;;;;;;;;;;5115230;28;20210;-52
2022/04/24 06:51:58;;;;;;;3.37;2.10;;;;;;;;;;5115498;28;20243;-52
2022/04/24 06:54:24;;;;;;;2.90;2.30;;;;;;;;;;5115134;28;20200;-52
2022/04/24 06:56:50;;;;;;;3.63;2.40;;;;;;;;;;5115061;28;20251;-52
2022/04/24 06:59:16;;;;;;;2.50;1.70;;;;;;;;;;5115446;28;20194;-52
2022/04/24 07:01:41;;;;;;;4.03;2.27;;;;;;;;;;5115301;28;20218;-52
2022/04/24 07:04:09;;;;;;;4.27;2.10;;;;;;;;;;5114876;28;20744;-52
2022/04/24 07:06:35;;;;;;;3.17;1.80;;;;;;;;;;5115038;27;20205;-51
2022/04/24 07:09:01;;;;;;;2.83;2.00;;;;;;;;;;5115124;28;20255;-51
2022/04/24 07:11:27;;;;;;;2.60;2.13;;;;;;;;;;5115014;28;20194;-53
2022/04/24 07:13:53;;;;;;;3.03;2.10;;;;;;;;;;5114939;27;20230;-52
2022/04/24 07:16:19;;;;;;;4.93;2.10;;;;;;;;;;5114885;28;20570;-52
2022/04/24 07:18:45;;;;;;;5.22;2.45;;;;;;;;;;5114197;28;20400;-53
2022/04/24 07:21:13;;;;;;;5.00;2.40;;;;;;;;;;5114779;27;20251;-55
2022/04/24 07:23:38;;;;;;;2.87;2.00;;;;;;;;;;5114690;28;20205;-51
2022/04/24 07:26:05;;;;;;;4.43;2.10;;;;;;;;;;5114655;28;20537;-52
2022/04/24 07:28:32;;;;;;;2.27;1.93;;;;;;;;;;5114687;27;20202;-52
2022/04/24 07:30:58;;;;;;;4.67;2.40;;;;;;;;;;5114821;28;20198;-52
2022/04/24 07:33:24;;;;;;;2.10;1.80;;;;;;;;;;5114123;28;20198;-55
2022/04/24 07:35:50;;;;;;;2.00;1.80;;;;;;;;;;5114509;28;20298;-52
2022/04/24 07:38:18;;;;;;;3.67;2.13;;;;;;;;;;5114512;28;20297;-53
2022/04/24 07:40:44;;;;;;;5.20;2.40;;;;;;;;;;5114580;27;20221;-54
2022/04/24 07:43:10;;;;;;;3.47;2.13;;;;;;;;;;5114330;28;20696;-55
2022/04/24 07:45:37;;;;;;;2.33;2.07;;;;;;;;;;5113922;28;20198;-54
2022/04/24 07:48:04;;;;;;;2.47;1.93;;;;;;;;;;5114143;28;20293;-53
2022/04/24 07:50:31;;;;;;;3.87;2.10;;;;;;;;;;5114229;28;20198;-51
2022/04/24 07:52:57;;;;;;;4.90;2.40;;;;;;;;;;5114353;28;20190;-53
2022/04/24 07:55:25;;;;;;;4.13;2.10;;;;;;;;;;5114198;28;20226;-55
2022/04/24 07:57:53;;;;;;;3.50;1.97;;;;;;;;;;5114116;28;20198;-54
2022/04/24 08:00:21;;;;;;;2.83;1.83;;;;;;;;;;5113842;28;20206;-53
2022/04/24 08:02:48;;;;;;;2.30;2.10;;;;;;;;;;5114117;28;20229;-53
2022/04/24 08:05:18;;;;;;;3.93;2.00;;;;;;;;;;5113997;28;20205;-53
2022/04/24 08:07:44;;;;;;;2.92;2.20;;;;;;;;;;5112687;28;20483;-54
2022/04/24 08:10:10;;;;;;;3.43;2.13;;;;;;;;;;5113913;28;20282;-54
2022/04/24 08:12:37;;;;;;;3.50;2.30;;;;;;;;;;5113682;28;20668;-53
2022/04/24 08:15:04;;;;;;;2.23;2.03;;;;;;;;;;5113793;28;20612;-53
2022/04/24 08:17:30;;;;;;;2.63;1.80;;;;;;;;;;5113793;28;20217;-52
2022/04/24 08:19:56;;;;;;;2.37;1.93;;;;;;;;;;5113658;28;20791;-52
2022/04/24 08:22:22;;;;;;;2.63;2.10;;;;;;;;;;5113437;27;20218;-54
2022/04/24 08:24:48;;;;;;;1.97;1.80;;;;;;;;;;5113685;28;20305;-54
2022/04/24 08:27:14;;;;;;;6.20;1.97;;;;;;;;;;5113642;28;20198;-53
2022/04/24 08:29:41;;;;;;;3.93;2.20;;;;;;;;;;5113551;28;20205;-54
2022/04/24 08:32:07;;;;;;;3.03;2.00;;;;;;;;;;5113627;28;20201;-54
2022/04/24 08:34:33;;;;;;;2.87;1.77;;;;;;;;;;5113179;28;20560;-52
2022/04/24 08:36:59;;;;;;;3.80;2.13;;;;;;;;;;5113536;28;20279;-54
2022/04/24 08:39:25;;;;;;;4.30;2.00;;;;;;;;;;5113463;28;20199;-53
2022/04/24 08:41:51;;;;;;;2.30;2.10;;;;;;;;;;5113498;28;20226;-53
2022/04/24 08:44:17;;;;;;;2.87;1.87;;;;;;;;;;5113283;28;20228;-53
2022/04/24 08:46:45;;;;;;;3.03;2.10;;;;;;;;;;5113249;28;20210;-53
2022/04/24 08:49:11;;;;;;;2.70;1.90;;;;;;;;;;5113327;28;20603;-53
2022/04/24 08:51:38;;;;;;;5.33;2.07;;;;;;;;;;5113027;28;20550;-54
2022/04/24 08:54:04;;;;;;;2.17;1.80;;;;;;;;;;5113096;28;20294;-53
2022/04/24 08:56:30;;;;;;;2.30;2.10;;;;;;;;;;5113024;28;20281;-52
2022/04/24 08:58:56;;;;;;;2.83;2.10;;;;;;;;;;5113009;28;20207;-52
2022/04/24 09:01:22;;;;;;;3.93;2.33;;;;;;;;;;5112601;28;20721;-52
2022/04/24 09:03:49;;;;;;;3.83;2.00;;;;;;;;;;5112896;28;20197;-53
2022/04/24 09:06:22;;;;;;;4.17;2.40;;;;;;;;;;5112959;28;20217;-54
2022/04/24 09:08:48;;;;;;;3.27;2.17;;;;;;;;;;5112779;28;20194;-54
2022/04/24 09:11:19;;;;;;;3.90;1.73;;;;;;;;;;5112816;28;20308;-54
2022/04/24 09:16:34;;;;;;;2.90;2.03;;;;;;;;;;5112832;28;20240;-54
2022/04/24 09:19:02;;;;;;;4.83;1.93;;;;;;;;;;5112555;28;20200;-52
2022/04/24 09:21:28;;;;;;;3.47;2.10;;;;;;;;;;5112421;28;20225;-51
2022/04/24 09:23:58;;;;;;;2.87;2.27;;;;;;;;;;5112392;28;20271;-54
2022/04/24 09:26:24;;;;;;;5.23;2.37;;;;;;;;;;5112443;28;20190;-54
2022/04/24 09:28:50;;;;;;;6.07;2.17;;;;;;;;;;5112478;28;20247;-53
2022/04/24 09:31:16;;;;;;;2.13;1.93;;;;;;;;;;5111852;28;20269;-52
2022/04/24 09:33:42;;;;;;;5.57;2.23;;;;;;;;;;5112444;28;20640;-54
2022/04/24 09:36:10;;;;;;;3.00;2.37;;;;;;;;;;5112512;28;20232;-53
2022/04/24 09:38:40;;;;;;;3.57;2.30;;;;;;;;;;5112426;28;20206;-55
2022/04/24 09:41:14;;;;;;;6.30;2.23;;;;;;;;;;5112373;28;20768;-56
2022/04/24 09:43:41;;;;;;;2.53;2.20;;;;;;;;;;5112139;28;20301;-55
2022/04/24 09:46:07;;;;;;;3.97;2.10;;;;;;;;;;5112421;28;20676;-56
2022/04/24 09:48:33;;;;;;;3.80;2.10;;;;;;;;;;5112378;28;20285;-55
2022/04/24 09:50:59;;;;;;;4.73;2.13;;;;;;;;;;5112520;28;20293;-56
2022/04/24 09:53:28;;;;;;;5.43;2.40;;;;;;;;;;5112271;28;20273;-56
2022/04/24 09:55:55;;;;;;;6.47;2.40;;;;;;;;;;5112256;28;20245;-56
2022/04/24 09:58:21;;;;;;;2.50;2.00;;;;;;;;;;5111721;28;20202;-55
2022/04/24 10:00:47;;;;;;;7.37;2.30;;;;;;;;;;5109293;28;20767;-56
2022/04/24 10:03:14;;;;;;;2.83;1.90;;;;;;;;;;5111784;28;20336;-56
2022/04/24 10:05:43;;;;;;;4.77;2.00;;;;;;;;;;5111887;28;20279;-57
2022/04/24 10:08:09;;;;;;;5.33;2.43;;;;;;;;;;5111682;28;20205;-55
2022/04/24 10:10:36;;;;;;;8.17;2.50;;;;;;;;;;5111590;28;20604;-55
2022/04/24 10:13:05;;;;;;;7.50;2.70;;;;;;;;;;5111672;28;20198;-56
2022/04/24 10:15:33;;;;;;;2.57;2.30;;;;;;;;;;5111677;28;20242;-56
2022/04/24 10:18:13;;;;;;;6.50;3.20;;;;;;;;;;5111846;28;20205;-55
2022/04/24 10:20:47;;;;;;;5.13;2.43;;;;;;;;;;5111636;28;20202;-56
2022/04/24 10:23:13;;;;;;;2.80;2.33;;;;;;;;;;5111963;28;20236;-55
2022/04/24 10:25:41;;;;;;;2.60;2.40;;;;;;;;;;5111566;28;20259;-56
2022/04/24 10:28:11;;;;;;;3.93;2.13;;;;;;;;;;5111427;28;20234;-55
2022/04/24 10:30:38;;;;;;;3.27;1.90;;;;;;;;;;5111353;28;20204;-55
2022/04/24 10:33:15;;;;;;;3.10;2.40;;;;;;;;;;5111680;28;20190;-57
2022/04/24 10:35:48;;;;;;;3.57;2.10;;;;;;;;;;5111802;28;20255;-59
2022/04/24 10:38:14;;;;;;;4.90;2.50;;;;;;;;;;5111950;28;20663;-56
2022/04/24 10:40:41;;;;;;;5.60;2.50;;;;;;;;;;5111948;28;20197;-55
2022/04/24 10:43:08;;;;;;;5.50;2.23;;;;;;;;;;5113356;28;20225;-55
2022/04/24 10:45:45;;;;;;;3.37;2.40;;;;;;;;;;5114325;28;20204;-55
2022/04/24 10:48:14;;;;;;;3.47;2.10;;;;;;;;;;5115730;28;20292;-56
2022/04/24 10:50:47;;;;;;;6.73;2.43;;;;;;;;;;5115549;28;20187;-56
2022/04/24 10:53:13;;;;;;;7.13;2.20;;;;;;;;;;5115634;28;20205;-55
2022/04/24 10:55:40;;;;;;;3.40;2.10;;;;;;;;;;5115659;28;20247;-55
2022/04/24 10:58:07;;;;;;;3.47;2.20;;;;;;;;;;5115841;28;20821;-55
2022/04/24 11:00:37;;;;;;;2.90;2.27;;;;;;;;;;5115399;28;20212;-55
2022/04/24 11:03:08;;;;;;;2.50;2.30;;;;;;;;;;5115482;27;20313;-55
2022/04/24 11:05:37;;;;;;;2.13;1.70;;;;;;;;;;5115056;28;20247;-56
2022/04/24 11:08:03;;;;;;;4.30;2.17;;;;;;;;;;5115424;28;20202;-57
2022/04/24 11:10:30;;;;;;;5.40;2.30;;;;;;;;;;5115525;28;20224;-54
2022/04/24 11:12:56;;;;;;;3.63;2.13;;;;;;;;;;5115416;28;20190;-56
2022/04/24 11:15:23;;;;;;;4.63;2.20;;;;;;;;;;5115167;28;20593;-55
2022/04/24 11:17:49;;;;;;;2.27;2.07;;;;;;;;;;5115347;28;20198;-56
2022/04/24 11:20:16;;;;;;;3.83;2.20;;;;;;;;;;5115341;28;20280;-55
2022/04/24 11:22:47;;;;;;;3.93;2.20;;;;;;;;;;5115072;28;20271;-56
2022/04/24 11:25:14;;;;;;;6.80;2.07;;;;;;;;;;5114817;28;20210;-55
2022/04/24 11:27:41;;;;;;;4.20;2.17;;;;;;;;;;5114825;28;20626;-56
2022/04/24 11:30:14;;;;;;;4.00;2.13;;;;;;;;;;5114899;27;20190;-55
2022/04/24 11:32:41;;;;;;;2.50;2.30;;;;;;;;;;5114712;27;20186;-55
2022/04/24 11:35:07;;;;;;;3.40;2.40;;;;;;;;;;5114798;28;20208;-55
2022/04/24 11:37:33;;;;;;;6.40;2.43;;;;;;;;;;5114699;28;20200;-56
2022/04/24 11:40:00;;;;;;;3.20;2.60;;;;;;;;;;5115088;28;20248;-55
2022/04/24 11:42:26;;;;;;;3.40;2.50;;;;;;;;;;5114418;28;20707;-56
2022/04/24 11:50:23;;;;;;;3.17;2.40;;;;;;;;;;5114534;28;20251;-57
2022/04/24 11:52:50;;;;;;;2.67;2.40;;;;;;;;;;5114344;28;20661;-55
2022/04/24 11:55:17;;;;;;;3.70;1.93;;;;;;;;;;5113447;28;20202;-56
2022/04/24 11:57:43;;;;;;;3.77;2.60;;;;;;;;;;5114509;28;20247;-56
2022/04/24 12:00:12;;;;;;;3.67;2.23;;;;;;;;;;5114455;28;20660;-56
2022/04/24 12:02:39;;;;;;;3.47;2.63;;;;;;;;;;5114233;28;20313;-55
2022/04/24 12:05:09;;;;;;;6.13;2.57;;;;;;;;;;5114319;28;20272;-56
2022/04/24 12:07:37;;;;;;;3.23;2.63;;;;;;;;;;5114055;28;20653;-55
2022/04/24 12:10:05;;;;;;;3.43;2.50;;;;;;;;;;5114026;28;20713;-56
2022/04/24 12:12:31;;;;;;;2.60;2.17;;;;;;;;;;5114144;28;20653;-55
2022/04/24 12:14:57;;;;;;;3.60;2.57;;;;;;;;;;5114073;28;20242;-55
2022/04/24 12:17:24;;;;;;;4.23;2.10;;;;;;;;;;5113847;28;20644;-54
2022/04/24 12:19:50;;;;;;;2.67;2.30;;;;;;;;;;5114041;28;20223;-55
2022/04/24 12:22:27;;;;;;;3.37;2.00;;;;;;;;;;5113992;28;20221;-55
2022/04/24 12:25:05;;;;;;;3.17;2.40;;;;;;;;;;5113813;28;20691;-54
2022/04/24 12:27:31;;;;;;;3.80;2.63;;;;;;;;;;5113547;28;20205;-54
2022/04/24 12:29:58;;;;;;;5.43;2.97;;;;;;;;;;5113527;27;20210;-56
2022/04/24 12:32:27;;;;;;;5.50;3.13;;;;;;;;;;5113449;28;20681;-53
2022/04/24 12:34:53;;;;;;;3.20;2.43;;;;;;;;;;5113332;28;20198;-55
2022/04/24 12:37:27;;;;;;;3.87;2.90;;;;;;;;;;5111076;28;20643;-55
2022/04/24 12:39:55;;;;;;;8.47;2.60;;;;;;;;;;5112668;28;20205;-54
2022/04/24 12:42:21;;;;;;;4.53;2.60;;;;;;;;;;5112870;28;20226;-54
2022/04/24 12:44:48;;;;;;;2.73;2.40;;;;;;;;;;5113041;28;20668;-56
2022/04/24 12:47:14;;;;;;;3.93;2.30;;;;;;;;;;5112969;28;20579;-55
2022/04/24 12:49:40;;;;;;;3.63;2.63;;;;;;;;;;5112860;28;20197;-54
2022/04/24 12:52:07;;;;;;;4.03;2.50;;;;;;;;;;5112811;28;20667;-54
2022/04/24 12:54:33;;;;;;;3.27;2.60;;;;;;;;;;5112752;28;20206;-54
2022/04/24 12:57:00;;;;;;;3.73;2.70;;;;;;;;;;5113084;28;20206;-55
2022/04/24 12:59:26;;;;;;;3.63;2.57;;;;;;;;;;5112684;28;20198;-54
2022/04/24 13:01:53;;;;;;;11.20;2.70;;;;;;;;;;5112612;28;20672;-55
2022/04/24 13:04:19;;;;;;;3.33;2.60;;;;;;;;;;5112675;28;20205;-54
2022/04/24 13:06:45;;;;;;;2.83;2.63;;;;;;;;;;5112589;28;20195;-56
2022/04/24 13:09:11;;;;;;;3.47;2.50;;;;;;;;;;5112576;28;20198;-55
2022/04/24 13:11:37;;;;;;;3.00;2.70;;;;;;;;;;5112531;28;20208;-55
2022/04/24 13:14:05;;;;;;;7.00;2.80;;;;;;;;;;5112416;28;20261;-55
2022/04/24 13:19:16;;;;;;;3.17;2.40;;;;;;;;;;5112621;28;20197;-54
2022/04/24 13:21:43;;;;;;;4.13;2.90;;;;;;;;;;5112292;28;20194;-54
2022/04/24 13:24:09;;;;;;;3.40;2.77;;;;;;;;;;5112357;28;20223;-54
2022/04/24 13:26:35;;;;;;;3.40;2.60;;;;;;;;;;5112333;28;20322;-53
2022/04/24 13:29:01;;;;;;;3.27;2.77;;;;;;;;;;5112489;28;20230;-55
2022/04/24 13:31:28;;;;;;;3.20;2.87;;;;;;;;;;5112243;28;20225;-56
2022/04/24 13:33:54;;;;;;;3.17;2.87;;;;;;;;;;5112403;28;20436;-55
2022/04/24 13:36:20;;;;;;;4.83;2.57;;;;;;;;;;5111951;28;20724;-54
2022/04/24 13:38:48;;;;;;;4.03;2.70;;;;;;;;;;5112125;28;20267;-55
2022/04/24 13:41:15;;;;;;;3.30;2.90;;;;;;;;;;5112055;28;20204;-55
2022/04/24 13:43:41;;;;;;;4.30;3.07;;;;;;;;;;5111911;28;20228;-54
2022/04/24 13:46:09;;;;;;;3.60;2.70;;;;;;;;;;5111840;28;20277;-55
2022/04/24 13:48:36;;;;;;;3.37;2.90;;;;;;;;;;5111967;28;20198;-55
2022/04/24 13:51:04;;;;;;;2.83;2.60;;;;;;;;;;5112080;28;20229;-54
2022/04/24 13:53:31;;;;;;;3.60;2.77;;;;;;;;;;5112065;28;20201;-54
2022/04/24 13:55:58;;;;;;;2.83;2.47;;;;;;;;;;5112017;28;20609;-55
2022/04/24 13:58:24;;;;;;;3.40;3.10;;;;;;;;;;5111987;28;20225;-55
2022/04/24 14:00:54;;;;;;;3.20;2.90;;;;;;;;;;5111764;28;20615;-55
2022/04/24 14:03:20;;;;;;;4.20;3.10;;;;;;;;;;5111773;28;20592;-54
2022/04/24 14:05:48;;;;;;;4.17;2.90;;;;;;;;;;5111971;28;20194;-55
2022/04/24 14:08:15;;;;;;;4.80;3.30;;;;;;;;;;5112018;28;20202;-55
2022/04/24 14:10:41;;;;;;;5.00;3.17;;;;;;;;;;5111751;28;20259;-54
2022/04/24 14:13:07;;;;;;;5.37;3.30;;;;;;;;;;5111874;28;20416;-55
2022/04/24 14:15:33;;;;;;;3.50;3.10;;;;;;;;;;5111648;28;20230;-55
2022/04/24 14:18:00;;;;;;;4.13;3.10;;;;;;;;;;5112991;28;20197;-56
2022/04/24 14:20:26;;;;;;;3.40;3.10;;;;;;;;;;5115833;28;20197;-54
2022/04/24 14:22:54;;;;;;;3.53;3.23;;;;;;;;;;5115729;28;20221;-55
2022/04/24 14:25:24;;;;;;;3.60;3.10;;;;;;;;;;5115598;27;20715;-55
2022/04/24 14:27:50;;;;;;;3.70;3.10;;;;;;;;;;5115724;28;20193;-55
2022/04/24 14:30:16;;;;;;;3.43;3.00;;;;;;;;;;5115835;28;20645;-54
2022/04/24 14:32:42;;;;;;;4.43;3.27;;;;;;;;;;5115568;28;20194;-54
2022/04/24 14:35:08;;;;;;;5.37;3.13;;;;;;;;;;5115753;28;20202;-54
2022/04/24 14:37:35;;;;;;;4.00;2.97;;;;;;;;;;5115506;28;20289;-53
2022/04/24 14:40:02;;;;;;;3.70;3.33;;;;;;;;;;5115776;28;20194;-56
2022/04/24 14:42:28;;;;;;;3.03;2.80;;;;;;;;;;5115473;28;20218;-55
2022/04/24 14:44:54;;;;;;;4.67;3.07;;;;;;;;;;5115360;28;20209;-54
2022/04/24 14:55:44;;;;;;;5.27;3.50;;;;;;;;;;5115275;28;20193;-54
2022/04/24 14:55:53;;;;;;;4.73;3.50;;;;;;;;;;5115154;28;20268;-53
2022/04/24 14:58:21;;;;;;;7.53;4.60;;;;;;;;;;5115160;28;20210;-56